Time;durP1;ratioP1;P1;durP2;ratioP2;P2;SDS_P1;SDS_P2;PMS_P1;PMS_P2;Temp;Humidity;BMP_temperature;BMP_pressure;BME280_temperature;BME280_humidity;BME280_pressure;Samples;Min_cycle;Max_cycle;Signal;HPM_P1;HPM_P2
2023/08/09 00:00:35;;;;;;;3.87;2.30;;;15.90;99.90;;;;;;464897;254;28910;-79
2023/08/09 00:02:36;;;;;;;5.90;2.30;;;15.90;99.90;;;;;;464877;254;28953;-79
2023/08/09 00:04:37;;;;;;;4.80;2.27;;;15.90;99.90;;;;;;464911;254;28922;-78
2023/08/09 00:06:39;;;;;;;5.17;2.90;;;15.90;99.90;;;;;;464927;254;28932;-79
2023/08/09 00:08:40;;;;;;;6.70;2.63;;;15.90;99.90;;;;;;464927;254;28916;-79
2023/08/09 00:10:41;;;;;;;10.80;2.60;;;15.90;99.90;;;;;;464894;256;28973;-79
2023/08/09 00:12:42;;;;;;;8.20;2.93;;;15.90;99.90;;;;;;464900;254;29052;-79
2023/08/09 00:14:44;;;;;;;2.43;2.23;;;15.90;99.90;;;;;;464871;254;28999;-79
2023/08/09 00:16:45;;;;;;;5.57;2.70;;;15.90;99.90;;;;;;464900;254;29418;-78
2023/08/09 00:18:46;;;;;;;4.63;2.37;;;15.90;99.90;;;;;;464898;254;29450;-79
2023/08/09 00:20:47;;;;;;;4.37;2.40;;;15.90;99.90;;;;;;464900;253;29458;-79
2023/08/09 00:22:49;;;;;;;2.77;2.40;;;15.90;99.90;;;;;;464881;252;29431;-78
2023/08/09 00:24:50;;;;;;;5.13;2.57;;;15.90;99.90;;;;;;464937;254;28959;-79
2023/08/09 00:26:51;;;;;;;2.40;2.20;;;15.90;99.90;;;;;;464921;254;29048;-79
2023/08/09 00:28:52;;;;;;;3.90;2.43;;;15.90;99.90;;;;;;464914;254;28962;-79
2023/08/09 00:30:54;;;;;;;3.33;2.10;;;15.90;99.90;;;;;;464891;254;28900;-79
2023/08/09 00:32:55;;;;;;;5.80;2.40;;;15.80;99.90;;;;;;464809;256;28923;-79
2023/08/09 00:34:56;;;;;;;3.70;2.67;;;15.80;99.90;;;;;;464924;254;29307;-79
2023/08/09 00:36:57;;;;;;;4.00;2.63;;;15.80;99.90;;;;;;464918;256;29003;-79
2023/08/09 00:38:59;;;;;;;3.50;2.50;;;15.80;99.90;;;;;;464916;254;28983;-79
2023/08/09 00:41:00;;;;;;;5.33;2.57;;;15.80;99.90;;;;;;464903;254;28903;-79
2023/08/09 00:43:01;;;;;;;4.83;2.80;;;15.80;99.90;;;;;;464892;254;29502;-79
2023/08/09 00:45:03;;;;;;;2.13;1.93;;;15.80;99.90;;;;;;464886;254;29449;-79
2023/08/09 00:47:04;;;;;;;3.43;2.50;;;15.80;99.90;;;;;;464888;252;29558;-79
2023/08/09 00:49:05;;;;;;;5.10;2.70;;;15.80;99.90;;;;;;464915;254;29029;-79
2023/08/09 00:51:06;;;;;;;6.13;2.47;;;15.80;99.90;;;;;;464869;254;28959;-79
2023/08/09 00:53:07;;;;;;;4.23;2.57;;;15.80;99.90;;;;;;464885;252;28984;-79
2023/08/09 00:55:09;;;;;;;4.37;2.37;;;15.70;99.90;;;;;;464933;254;29042;-80
2023/08/09 00:57:10;;;;;;;5.00;2.53;;;15.70;99.90;;;;;;464925;254;29007;-79
2023/08/09 00:59:11;;;;;;;4.30;2.43;;;15.70;99.90;;;;;;464903;254;28972;-79
2023/08/09 01:01:13;;;;;;;3.30;2.30;;;15.60;99.90;;;;;;464874;254;29006;-79
2023/08/09 01:03:14;;;;;;;3.37;2.50;;;15.60;99.90;;;;;;464879;254;28972;-79
2023/08/09 01:05:15;;;;;;;5.80;2.43;;;15.60;99.90;;;;;;464917;254;28924;-79
2023/08/09 01:07:16;;;;;;;3.37;2.33;;;15.60;99.90;;;;;;464902;254;29464;-79
2023/08/09 01:09:18;;;;;;;4.00;2.50;;;15.60;99.90;;;;;;464917;254;29419;-79
2023/08/09 01:11:19;;;;;;;4.97;2.77;;;15.50;99.90;;;;;;464922;254;29372;-79
2023/08/09 01:13:20;;;;;;;6.90;2.20;;;15.50;99.90;;;;;;464901;254;28959;-79
2023/08/09 01:15:21;;;;;;;4.27;2.27;;;15.50;99.90;;;;;;464934;254;29063;-79
2023/08/09 01:17:23;;;;;;;5.47;2.57;;;15.50;99.90;;;;;;464953;254;29098;-79
2023/08/09 01:19:24;;;;;;;3.83;2.50;;;15.50;99.90;;;;;;464933;254;29043;-78
2023/08/09 01:21:25;;;;;;;4.60;2.90;;;15.40;99.90;;;;;;464906;254;28907;-79
2023/08/09 01:23:26;;;;;;;3.80;2.33;;;15.40;99.90;;;;;;464906;254;28956;-79
2023/08/09 01:25:28;;;;;;;5.47;2.57;;;15.40;99.90;;;;;;464914;254;29301;-79
2023/08/09 01:27:29;;;;;;;3.43;2.40;;;15.40;99.90;;;;;;464903;254;29011;-78
2023/08/09 01:29:30;;;;;;;5.20;2.40;;;15.40;99.90;;;;;;464846;254;28940;-78
2023/08/09 01:31:31;;;;;;;6.00;2.27;;;15.40;99.90;;;;;;464868;253;29461;-79
2023/08/09 01:33:33;;;;;;;5.40;2.40;;;15.40;99.90;;;;;;464886;255;30332;-79
2023/08/09 01:35:34;;;;;;;3.20;2.10;;;15.30;99.90;;;;;;464918;254;29476;-79
2023/08/09 01:37:35;;;;;;;2.90;2.67;;;15.30;99.90;;;;;;464919;254;28917;-79
2023/08/09 01:39:36;;;;;;;3.37;2.80;;;15.40;99.90;;;;;;464889;254;28971;-79
2023/08/09 01:41:38;;;;;;;2.70;2.37;;;15.30;99.90;;;;;;464885;255;28896;-80
2023/08/09 01:43:39;;;;;;;3.40;2.40;;;15.30;99.90;;;;;;464895;254;28996;-79
2023/08/09 01:45:40;;;;;;;2.60;2.40;;;15.30;99.90;;;;;;464941;252;28963;-79
2023/08/09 01:47:41;;;;;;;4.17;2.57;;;15.40;99.90;;;;;;464914;254;28986;-79
2023/08/09 01:49:43;;;;;;;3.47;2.60;;;15.30;99.90;;;;;;464863;254;28960;-79
2023/08/09 01:51:45;;;;;;;2.17;2.07;;;15.30;99.90;;;;;;464862;247;28903;-79
2023/08/09 01:53:45;;;;;;;2.70;2.40;;;15.30;99.90;;;;;;464846;251;28927;-78
2023/08/09 01:55:46;;;;;;;2.77;2.10;;;15.30;99.90;;;;;;464887;254;29410;-78
2023/08/09 01:57:48;;;;;;;4.03;2.77;;;15.30;99.90;;;;;;464891;254;29468;-79
2023/08/09 01:59:49;;;;;;;2.80;2.60;;;15.30;99.90;;;;;;464877;254;29457;-79
2023/08/09 02:01:50;;;;;;;2.57;2.37;;;15.30;99.90;;;;;;464865;254;30136;-79
2023/08/09 02:03:51;;;;;;;3.33;2.37;;;15.30;99.90;;;;;;464882;254;29032;-79
2023/08/09 02:05:53;;;;;;;6.37;2.70;;;15.30;99.90;;;;;;464906;254;28964;-78
2023/08/09 02:07:54;;;;;;;6.40;2.70;;;15.30;99.90;;;;;;464898;254;28967;-79
2023/08/09 02:09:55;;;;;;;2.60;2.40;;;15.30;99.90;;;;;;464858;254;29055;-79
2023/08/09 02:11:56;;;;;;;3.03;2.77;;;15.30;99.90;;;;;;464874;254;28950;-79
2023/08/09 02:13:58;;;;;;;3.50;2.40;;;15.30;99.90;;;;;;464870;254;28947;-79
2023/08/09 02:15:59;;;;;;;3.03;2.73;;;15.30;99.90;;;;;;464876;254;28948;-78
2023/08/09 02:18:00;;;;;;;4.57;2.60;;;15.20;99.90;;;;;;464894;254;28903;-79
2023/08/09 02:20:04;;;;;;;2.97;2.60;;;15.30;99.90;;;;;;464870;254;29469;-79
2023/08/09 02:22:03;;;;;;;3.63;2.30;;;15.20;99.90;;;;;;464872;254;30131;-79
2023/08/09 02:24:05;;;;;;;4.50;2.60;;;15.20;99.90;;;;;;464903;254;29454;-79
2023/08/09 02:26:05;;;;;;;7.90;2.87;;;15.20;99.90;;;;;;464851;256;28952;-79
2023/08/09 02:28:08;;;;;;;3.23;2.27;;;15.20;99.90;;;;;;464882;254;28899;-78
2023/08/09 02:30:08;;;;;;;5.70;2.70;;;15.20;99.90;;;;;;464865;255;29016;-79
2023/08/09 02:32:09;;;;;;;2.60;2.40;;;15.20;99.90;;;;;;464877;254;28927;-79
2023/08/09 02:34:11;;;;;;;3.10;2.20;;;15.20;99.90;;;;;;464888;253;28919;-79
2023/08/09 02:36:11;;;;;;;3.23;2.13;;;15.20;99.90;;;;;;464863;253;29072;-79
2023/08/09 02:38:13;;;;;;;3.93;2.43;;;15.20;99.90;;;;;;464871;254;28927;-79
2023/08/09 02:40:14;;;;;;;9.50;2.67;;;15.20;99.90;;;;;;464858;256;28939;-80
2023/08/09 02:42:16;;;;;;;3.57;2.50;;;15.20;99.90;;;;;;464745;254;29619;-79
2023/08/09 02:44:16;;;;;;;3.00;2.40;;;15.20;99.90;;;;;;464875;252;29363;-79
2023/08/09 02:46:18;;;;;;;6.77;2.53;;;15.20;99.90;;;;;;464870;254;29496;-79
2023/08/09 02:48:19;;;;;;;2.40;2.20;;;15.20;99.90;;;;;;464844;254;29373;-80
2023/08/09 02:50:20;;;;;;;4.50;2.27;;;15.10;99.90;;;;;;464807;254;28951;-78
2023/08/09 02:52:21;;;;;;;3.00;2.70;;;15.10;99.90;;;;;;464863;254;29013;-79
2023/08/09 02:54:23;;;;;;;3.03;2.60;;;15.10;99.90;;;;;;464870;252;28917;-79
2023/08/09 02:56:24;;;;;;;2.87;2.60;;;15.10;99.90;;;;;;464844;254;28970;-80
2023/08/09 02:58:25;;;;;;;2.70;2.50;;;15.10;99.90;;;;;;464839;254;29034;-79
2023/08/09 03:00:26;;;;;;;4.27;2.53;;;15.10;99.90;;;;;;464831;254;28986;-79
2023/08/09 03:02:28;;;;;;;3.67;2.50;;;15.10;99.90;;;;;;464827;255;29038;-79
2023/08/09 03:04:29;;;;;;;4.37;2.40;;;15.10;99.90;;;;;;464864;254;28921;-78
2023/08/09 03:06:30;;;;;;;3.30;2.43;;;15.10;99.90;;;;;;464886;254;29556;-78
2023/08/09 03:08:31;;;;;;;5.23;2.47;;;15.10;99.90;;;;;;464869;254;29513;-78
2023/08/09 03:10:33;;;;;;;3.30;2.63;;;15.10;99.90;;;;;;464894;254;29426;-79
2023/08/09 03:12:34;;;;;;;9.80;2.60;;;15.10;99.90;;;;;;464861;252;29599;-79
2023/08/09 03:14:35;;;;;;;3.77;2.80;;;15.10;99.90;;;;;;464877;254;28922;-79
2023/08/09 03:16:36;;;;;;;5.67;2.60;;;15.10;99.90;;;;;;464878;255;28987;-79
2023/08/09 03:18:38;;;;;;;3.87;2.90;;;15.10;99.90;;;;;;464874;254;29007;-79
2023/08/09 03:20:39;;;;;;;2.90;2.53;;;15.10;99.90;;;;;;464851;251;28959;-79
2023/08/09 03:22:40;;;;;;;2.30;2.10;;;15.10;99.90;;;;;;464893;255;29307;-79
2023/08/09 03:24:41;;;;;;;4.50;2.60;;;15.10;99.90;;;;;;464862;256;28981;-79
2023/08/09 03:26:43;;;;;;;2.83;2.23;;;15.10;99.90;;;;;;464857;254;28963;-79
2023/08/09 03:28:44;;;;;;;5.93;2.70;;;15.00;99.90;;;;;;464873;254;28908;-78
2023/08/09 03:30:45;;;;;;;4.17;2.80;;;15.00;99.90;;;;;;464840;254;29725;-79
2023/08/09 03:32:46;;;;;;;2.63;2.13;;;15.00;99.90;;;;;;464881;252;29581;-78
2023/08/09 03:34:48;;;;;;;2.97;2.30;;;15.00;99.90;;;;;;464855;254;29559;-78
2023/08/09 03:36:49;;;;;;;3.00;2.40;;;15.00;99.90;;;;;;464860;254;29496;-79
2023/08/09 03:38:50;;;;;;;2.63;2.40;;;15.00;99.90;;;;;;464863;254;28905;-79
2023/08/09 03:40:51;;;;;;;2.60;2.40;;;15.00;99.90;;;;;;464866;254;28959;-79
2023/08/09 03:42:53;;;;;;;3.63;2.30;;;15.00;99.90;;;;;;464852;252;28965;-80
2023/08/09 03:44:54;;;;;;;5.40;2.47;;;15.00;99.90;;;;;;464859;256;28893;-79
2023/08/09 03:46:56;;;;;;;2.60;2.40;;;15.00;99.90;;;;;;464859;254;28969;-79
2023/08/09 03:48:56;;;;;;;5.30;2.70;;;14.90;99.90;;;;;;464844;253;28928;-79
2023/08/09 03:50:58;;;;;;;5.10;2.23;;;14.90;99.90;;;;;;464880;254;28943;-79
2023/08/09 03:52:59;;;;;;;4.83;2.17;;;14.90;99.90;;;;;;464891;255;28946;-79
2023/08/09 03:55:00;;;;;;;4.63;2.30;;;14.90;99.90;;;;;;464828;256;29412;-79
2023/08/09 03:57:01;;;;;;;2.40;2.20;;;14.90;99.90;;;;;;464846;254;29460;-79
2023/08/09 03:59:03;;;;;;;2.57;2.30;;;14.90;99.90;;;;;;464870;254;30260;-80
2023/08/09 04:01:04;;;;;;;3.20;2.77;;;14.90;99.90;;;;;;464872;254;29359;-79
2023/08/09 04:03:05;;;;;;;3.43;2.30;;;14.90;99.90;;;;;;464892;254;29007;-79
2023/08/09 04:05:06;;;;;;;3.80;2.43;;;14.90;99.90;;;;;;464868;254;28913;-79
2023/08/09 04:07:08;;;;;;;5.07;2.40;;;14.90;99.90;;;;;;464854;251;28927;-79
2023/08/09 04:09:10;;;;;;;4.50;2.40;;;14.90;99.90;;;;;;464867;254;28955;-79
2023/08/09 04:11:10;;;;;;;2.50;2.30;;;14.90;99.90;;;;;;464873;254;28988;-79
2023/08/09 04:13:11;;;;;;;3.93;2.60;;;15.00;99.90;;;;;;464890;254;28648;-78
2023/08/09 04:15:13;;;;;;;3.27;2.40;;;15.00;99.90;;;;;;464864;254;28933;-79
2023/08/09 04:17:14;;;;;;;3.97;2.70;;;15.00;99.90;;;;;;464860;254;28935;-79
2023/08/09 04:19:15;;;;;;;3.37;2.80;;;15.00;99.90;;;;;;464875;254;29573;-79
2023/08/09 04:21:16;;;;;;;6.43;2.50;;;15.00;99.90;;;;;;464900;254;29362;-79
2023/08/09 04:23:18;;;;;;;2.70;2.50;;;15.00;99.90;;;;;;464894;255;29411;-79
2023/08/09 04:25:19;;;;;;;2.50;2.30;;;15.00;99.90;;;;;;464863;254;29359;-79
2023/08/09 04:27:22;;;;;;;4.77;2.80;;;15.10;99.90;;;;;;464879;254;28942;-79
2023/08/09 04:29:21;;;;;;;3.77;2.40;;;15.10;99.90;;;;;;464900;254;29038;-79
2023/08/09 04:31:23;;;;;;;4.30;2.97;;;15.10;99.90;;;;;;464909;256;28987;-79
2023/08/09 04:33:24;;;;;;;3.27;2.63;;;15.10;99.90;;;;;;464923;254;28946;-79
2023/08/09 04:35:25;;;;;;;2.60;2.40;;;15.10;99.90;;;;;;464917;254;28909;-79
2023/08/09 04:37:27;;;;;;;3.37;2.60;;;15.10;99.90;;;;;;464901;255;28962;-78
2023/08/09 04:39:28;;;;;;;5.47;2.53;;;15.20;99.90;;;;;;464935;254;28956;-79
2023/08/09 04:41:31;;;;;;;2.70;2.50;;;15.10;99.90;;;;;;464908;254;28916;-79
2023/08/09 04:43:30;;;;;;;3.03;2.53;;;15.20;99.90;;;;;;464874;254;29480;-78
2023/08/09 04:45:33;;;;;;;5.30;3.20;;;15.20;99.90;;;;;;464922;254;29467;-79
2023/08/09 04:47:33;;;;;;;3.50;2.40;;;15.20;99.90;;;;;;464925;254;29384;-79
2023/08/09 04:49:34;;;;;;;4.20;2.60;;;15.20;99.90;;;;;;464910;254;29423;-79
2023/08/09 04:51:35;;;;;;;3.93;2.63;;;15.20;99.90;;;;;;464923;254;28905;-79
2023/08/09 04:53:37;;;;;;;3.60;2.60;;;15.20;99.90;;;;;;464911;254;28899;-79
2023/08/09 04:55:38;;;;;;;4.60;2.90;;;15.20;99.90;;;;;;464898;254;28917;-78
2023/08/09 04:57:39;;;;;;;4.07;2.40;;;15.20;99.90;;;;;;464933;252;28951;-79
2023/08/09 04:59:40;;;;;;;3.17;2.27;;;15.20;99.90;;;;;;464950;254;28982;-78
2023/08/09 05:01:42;;;;;;;6.10;2.80;;;15.20;99.90;;;;;;464921;254;29069;-78
2023/08/09 05:03:43;;;;;;;2.80;2.47;;;15.20;99.90;;;;;;464924;255;28970;-79
2023/08/09 05:05:44;;;;;;;5.10;2.90;;;15.30;99.90;;;;;;464910;254;28959;-79
2023/08/09 05:07:45;;;;;;;6.97;3.03;;;15.30;99.90;;;;;;464870;255;29039;-79
2023/08/09 05:09:47;;;;;;;3.43;2.60;;;15.20;99.90;;;;;;464908;254;29446;-79
2023/08/09 05:11:48;;;;;;;9.30;2.90;;;15.30;99.90;;;;;;464947;254;28916;-79
2023/08/09 05:13:49;;;;;;;4.03;2.70;;;15.30;99.90;;;;;;464887;254;28954;-79
2023/08/09 05:15:50;;;;;;;5.93;2.93;;;15.30;99.90;;;;;;464902;254;28981;-79
2023/08/09 05:17:52;;;;;;;4.73;2.60;;;15.30;99.90;;;;;;464907;254;28956;-79
2023/08/09 05:19:53;;;;;;;2.80;2.57;;;15.30;99.90;;;;;;464931;254;28975;-79
2023/08/09 05:21:54;;;;;;;3.47;2.30;;;15.30;99.90;;;;;;464915;254;29000;-78
2023/08/09 05:23:55;;;;;;;6.67;2.60;;;15.30;99.90;;;;;;464911;254;28964;-79
2023/08/09 05:25:57;;;;;;;5.67;3.10;;;15.40;99.90;;;;;;464885;252;28903;-79
2023/08/09 05:27:58;;;;;;;3.47;3.10;;;15.40;99.90;;;;;;464915;255;29031;-78
2023/08/09 05:29:59;;;;;;;5.17;2.87;;;15.30;99.90;;;;;;464905;251;29506;-79
2023/08/09 05:32:00;;;;;;;4.83;2.47;;;15.40;99.90;;;;;;464910;254;29511;-79
2023/08/09 05:34:02;;;;;;;3.47;2.70;;;15.40;99.90;;;;;;464901;256;29450;-79
2023/08/09 05:36:03;;;;;;;5.17;2.60;;;15.50;99.90;;;;;;464879;255;28995;-79
2023/08/09 05:38:04;;;;;;;2.67;2.47;;;15.50;99.90;;;;;;464892;253;29004;-80
2023/08/09 05:40:07;;;;;;;3.97;2.57;;;15.70;99.90;;;;;;464930;254;28974;-79
2023/08/09 05:42:07;;;;;;;2.90;2.43;;;15.80;99.90;;;;;;464877;254;29019;-79
2023/08/09 05:44:08;;;;;;;4.40;2.63;;;15.90;99.90;;;;;;464915;254;28964;-78
2023/08/09 05:46:09;;;;;;;3.90;2.77;;;16.10;99.90;;;;;;464910;254;28923;-79
2023/08/09 05:48:10;;;;;;;5.13;2.50;;;16.30;99.90;;;;;;464910;254;28959;-79
2023/08/09 05:50:12;;;;;;;2.40;2.20;;;16.30;99.90;;;;;;464894;254;28984;-79
2023/08/09 05:52:13;;;;;;;7.50;2.83;;;16.40;99.90;;;;;;464906;254;28925;-79
2023/08/09 05:54:14;;;;;;;3.27;2.20;;;16.40;99.90;;;;;;464905;254;29409;-79
2023/08/09 05:56:15;;;;;;;2.43;2.20;;;16.40;99.90;;;;;;464900;254;29380;-79
2023/08/09 05:58:17;;;;;;;2.63;2.27;;;16.40;99.90;;;;;;464925;254;29370;-79
2023/08/09 06:00:18;;;;;;;2.83;1.90;;;16.50;99.90;;;;;;464911;254;28948;-79
2023/08/09 06:02:19;;;;;;;3.50;2.63;;;16.50;99.90;;;;;;464928;254;28969;-79
2023/08/09 06:04:22;;;;;;;5.03;2.60;;;16.50;99.90;;;;;;464897;254;28944;-78
2023/08/09 06:06:23;;;;;;;4.27;2.37;;;16.60;99.90;;;;;;464882;254;28963;-79
2023/08/09 06:08:23;;;;;;;3.20;2.17;;;16.60;99.90;;;;;;464900;254;28928;-79
2023/08/09 06:10:25;;;;;;;3.30;2.77;;;16.60;99.90;;;;;;464921;254;29076;-79
2023/08/09 06:12:25;;;;;;;5.53;2.80;;;16.70;99.90;;;;;;464900;254;28918;-80
2023/08/09 06:14:27;;;;;;;2.57;2.27;;;16.70;99.90;;;;;;464909;256;28957;-79
2023/08/09 06:16:28;;;;;;;3.80;2.40;;;16.70;99.90;;;;;;464871;254;28898;-79
2023/08/09 06:18:29;;;;;;;2.33;2.23;;;16.80;99.90;;;;;;464941;254;29373;-79
2023/08/09 06:20:31;;;;;;;6.90;2.60;;;16.70;99.90;;;;;;464913;252;29437;-78
2023/08/09 06:22:32;;;;;;;2.30;2.10;;;16.80;99.90;;;;;;464889;254;29465;-79
2023/08/09 06:24:33;;;;;;;6.20;2.20;;;16.80;99.90;;;;;;464880;254;29501;-79
2023/08/09 06:26:34;;;;;;;4.10;2.20;;;17.00;99.90;;;;;;464873;254;28947;-79
2023/08/09 06:28:35;;;;;;;4.07;2.10;;;17.00;99.90;;;;;;464915;255;29100;-79
2023/08/09 06:30:37;;;;;;;5.27;2.53;;;17.10;99.90;;;;;;464873;254;28935;-78
2023/08/09 06:32:38;;;;;;;4.03;2.23;;;17.10;99.90;;;;;;464891;254;28912;-79
2023/08/09 06:34:39;;;;;;;1.93;1.83;;;17.10;99.90;;;;;;464873;254;28952;-79
2023/08/09 06:36:40;;;;;;;5.10;2.40;;;17.00;99.90;;;;;;464871;254;28965;-79
2023/08/09 06:38:42;;;;;;;4.33;2.43;;;17.00;99.90;;;;;;464897;254;28959;-79
2023/08/09 06:40:43;;;;;;;4.70;2.53;;;16.90;99.90;;;;;;464908;254;28960;-79
2023/08/09 06:42:44;;;;;;;7.10;2.27;;;16.80;99.90;;;;;;464868;254;29354;-79
2023/08/09 06:44:45;;;;;;;6.73;2.70;;;16.80;99.90;;;;;;464894;254;29499;-79
2023/08/09 06:46:47;;;;;;;3.17;2.10;;;16.80;99.90;;;;;;464896;254;29514;-79
2023/08/09 06:48:48;;;;;;;2.73;2.50;;;16.70;99.90;;;;;;464888;254;29440;-79
2023/08/09 06:50:49;;;;;;;3.63;2.30;;;16.60;99.90;;;;;;464898;255;28937;-79
2023/08/09 06:52:50;;;;;;;7.90;2.30;;;16.60;99.90;;;;;;464897;254;28908;-79
2023/08/09 06:54:52;;;;;;;4.50;2.40;;;16.60;99.90;;;;;;464874;254;29063;-79
2023/08/09 06:56:53;;;;;;;2.60;2.23;;;16.60;99.90;;;;;;464914;255;28976;-79
2023/08/09 06:58:54;;;;;;;6.87;2.57;;;16.80;99.90;;;;;;464892;254;28906;-79
2023/08/09 07:00:56;;;;;;;3.57;2.47;;;16.90;99.90;;;;;;464891;254;28988;-79
2023/08/09 07:02:57;;;;;;;6.40;2.67;;;17.00;99.90;;;;;;464856;254;29019;-79
2023/08/09 07:04:58;;;;;;;2.40;2.20;;;17.00;99.90;;;;;;464888;253;29011;-80
2023/08/09 07:06:59;;;;;;;2.47;2.10;;;17.00;99.90;;;;;;464878;254;28939;-79
2023/08/09 07:09:00;;;;;;;4.13;2.00;;;17.00;99.90;;;;;;464924;254;29349;-79
2023/08/09 07:11:02;;;;;;;2.37;2.13;;;16.80;99.90;;;;;;464878;255;29427;-79
2023/08/09 07:13:03;;;;;;;4.33;2.60;;;16.70;99.90;;;;;;464898;254;29360;-79
2023/08/09 07:15:08;;;;;;;3.10;2.30;;;16.70;99.90;;;;;;464880;254;29074;-79
2023/08/09 07:17:08;;;;;;;3.73;2.20;;;16.60;99.90;;;;;;464878;254;29092;-79
2023/08/09 07:19:10;;;;;;;2.50;2.30;;;16.70;99.90;;;;;;464897;255;29031;-79
2023/08/09 07:21:11;;;;;;;3.07;2.77;;;16.70;99.90;;;;;;464900;256;28908;-78
2023/08/09 07:23:12;;;;;;;3.00;2.80;;;16.60;99.90;;;;;;464907;254;28996;-79
2023/08/09 07:25:16;;;;;;;3.20;2.30;;;16.50;99.90;;;;;;464921;254;29006;-79
2023/08/09 07:27:17;;;;;;;3.87;2.50;;;16.50;99.90;;;;;;464890;255;29460;-79
2023/08/09 07:29:18;;;;;;;2.97;2.70;;;16.50;99.90;;;;;;464901;254;29484;-79
2023/08/09 07:31:20;;;;;;;2.60;2.17;;;16.50;99.90;;;;;;464888;255;29364;-79
2023/08/09 07:33:21;;;;;;;2.37;1.97;;;16.50;99.90;;;;;;464932;255;28906;-80
2023/08/09 07:35:22;;;;;;;4.20;2.43;;;16.50;99.90;;;;;;464899;255;28964;-79
2023/08/09 07:37:23;;;;;;;2.50;2.10;;;16.50;99.90;;;;;;464901;254;28923;-79
2023/08/09 07:39:25;;;;;;;7.57;2.63;;;16.50;99.90;;;;;;464921;254;29022;-79
2023/08/09 07:41:26;;;;;;;2.60;2.00;;;16.50;99.90;;;;;;464919;254;28960;-79
2023/08/09 07:43:27;;;;;;;2.40;2.20;;;16.50;99.90;;;;;;464912;255;28926;-79
2023/08/09 07:45:28;;;;;;;3.00;2.43;;;16.60;99.90;;;;;;464905;254;29045;-79
2023/08/09 07:47:30;;;;;;;7.43;2.93;;;16.50;99.90;;;;;;464929;254;28912;-79
2023/08/09 07:49:31;;;;;;;2.83;2.57;;;16.50;99.90;;;;;;464911;254;28999;-79
2023/08/09 07:51:32;;;;;;;2.87;2.60;;;16.50;99.90;;;;;;464928;254;29523;-79
2023/08/09 07:53:33;;;;;;;6.53;2.50;;;16.50;99.90;;;;;;464958;254;29534;-79
2023/08/09 07:55:35;;;;;;;2.73;2.53;;;16.50;99.90;;;;;;464888;254;29629;-79
2023/08/09 07:57:36;;;;;;;4.37;3.20;;;16.60;99.90;;;;;;464885;254;28925;-79
2023/08/09 07:59:37;;;;;;;2.70;2.50;;;16.70;99.90;;;;;;464783;256;29058;-79
2023/08/09 08:01:40;;;;;;;6.97;3.17;;;16.70;99.90;;;;;;464909;254;28966;-79
2023/08/09 08:03:40;;;;;;;7.13;2.70;;;16.80;99.90;;;;;;464892;254;28961;-79
2023/08/09 08:05:41;;;;;;;3.50;3.00;;;16.80;99.90;;;;;;464887;252;29067;-78
2023/08/09 08:07:46;;;;;;;2.80;2.50;;;16.80;99.90;;;;;;464881;254;28976;-79
2023/08/09 08:09:45;;;;;;;2.90;2.70;;;16.80;99.90;;;;;;464840;255;28946;-79
2023/08/09 08:11:45;;;;;;;5.20;2.73;;;16.90;99.90;;;;;;464892;254;28956;-79
2023/08/09 08:13:46;;;;;;;3.83;2.93;;;16.90;99.90;;;;;;464893;255;28916;-79
2023/08/09 08:15:47;;;;;;;3.60;2.87;;;16.80;99.90;;;;;;464870;255;29467;-79
2023/08/09 08:17:51;;;;;;;6.97;3.20;;;16.70;99.90;;;;;;464881;254;29447;-79
2023/08/09 08:19:50;;;;;;;4.83;3.10;;;16.70;99.90;;;;;;464873;252;29366;-79
2023/08/09 08:21:51;;;;;;;3.03;2.70;;;16.80;99.90;;;;;;464942;254;28952;-78
2023/08/09 08:23:53;;;;;;;3.00;2.60;;;16.80;99.90;;;;;;464910;254;28952;-78
2023/08/09 08:25:55;;;;;;;4.73;2.90;;;16.80;99.90;;;;;;464892;255;28945;-79
2023/08/09 08:27:55;;;;;;;4.70;3.00;;;16.70;99.90;;;;;;464862;256;28971;-79
2023/08/09 08:29:56;;;;;;;3.20;3.00;;;16.70;99.90;;;;;;464938;255;28944;-79
2023/08/09 08:31:57;;;;;;;4.83;3.10;;;16.80;99.90;;;;;;464984;254;28974;-79
2023/08/09 08:33:59;;;;;;;3.07;2.87;;;16.90;99.90;;;;;;464981;254;28955;-79
2023/08/09 08:36:00;;;;;;;3.70;3.40;;;17.00;99.90;;;;;;464923;254;28946;-79
2023/08/09 08:38:01;;;;;;;3.87;3.27;;;17.10;99.90;;;;;;464896;254;28990;-79
2023/08/09 08:40:07;;;;;;;5.20;3.73;;;17.00;99.90;;;;;;464855;256;29022;-79
2023/08/09 08:42:03;;;;;;;4.20;3.50;;;17.10;99.90;;;;;;464889;254;29461;-79
2023/08/09 08:44:06;;;;;;;3.90;3.00;;;17.10;99.90;;;;;;464904;256;28893;-79
2023/08/09 08:46:06;;;;;;;4.73;3.00;;;17.00;99.90;;;;;;464926;254;29490;-79
2023/08/09 08:48:08;;;;;;;5.07;3.40;;;17.00;99.90;;;;;;464923;254;28897;-79
2023/08/09 08:50:08;;;;;;;3.13;2.93;;;16.90;99.90;;;;;;464875;254;28961;-79
2023/08/09 08:52:10;;;;;;;3.13;2.63;;;16.90;99.90;;;;;;464745;254;29010;-78
2023/08/09 08:54:12;;;;;;;5.90;3.27;;;17.00;99.90;;;;;;464912;254;28894;-79
2023/08/09 08:56:12;;;;;;;3.53;2.93;;;16.90;99.90;;;;;;464873;255;28979;-79
2023/08/09 08:58:14;;;;;;;2.53;2.43;;;16.90;99.90;;;;;;464880;252;29028;-79
2023/08/09 09:00:18;;;;;;;3.67;2.73;;;17.00;99.90;;;;;;464881;252;29315;-79
2023/08/09 09:02:19;;;;;;;3.20;2.60;;;17.20;99.90;;;;;;464881;254;29378;-79
2023/08/09 09:04:20;;;;;;;3.03;2.80;;;17.20;99.90;;;;;;464849;254;29421;-79
2023/08/09 09:06:21;;;;;;;3.93;2.70;;;17.20;99.90;;;;;;464882;254;28896;-79
2023/08/09 09:08:22;;;;;;;2.20;2.10;;;17.20;99.90;;;;;;464880;254;28960;-80
2023/08/09 09:10:24;;;;;;;3.17;2.30;;;17.40;99.90;;;;;;464899;254;28938;-78
2023/08/09 09:12:25;;;;;;;4.00;3.30;;;17.50;99.90;;;;;;464926;254;28929;-79
2023/08/09 09:14:26;;;;;;;3.10;2.80;;;17.40;99.90;;;;;;464907;255;28935;-79
2023/08/09 09:16:27;;;;;;;4.57;2.80;;;17.30;99.90;;;;;;464914;255;29011;-79
2023/08/09 09:18:29;;;;;;;3.07;2.77;;;17.30;99.90;;;;;;464904;254;28961;-79
2023/08/09 09:20:30;;;;;;;3.30;3.00;;;17.20;99.90;;;;;;464894;254;28946;-80
2023/08/09 09:22:34;;;;;;;5.17;3.20;;;17.20;99.90;;;;;;464905;251;28916;-79
2023/08/09 09:24:32;;;;;;;3.80;3.50;;;17.20;99.90;;;;;;464850;254;29450;-79
2023/08/09 09:26:34;;;;;;;3.70;3.37;;;17.10;99.90;;;;;;464907;254;29388;-79
2023/08/09 09:28:35;;;;;;;3.70;3.40;;;17.00;99.90;;;;;;464880;254;29423;-78
2023/08/09 09:30:36;;;;;;;3.80;3.20;;;17.10;99.90;;;;;;464896;253;28948;-79
2023/08/09 09:32:37;;;;;;;4.30;3.00;;;17.10;99.90;;;;;;464921;254;28972;-78
2023/08/09 09:34:39;;;;;;;6.00;3.37;;;17.00;99.90;;;;;;464902;254;28952;-80
2023/08/09 09:36:40;;;;;;;4.50;3.23;;;17.00;99.90;;;;;;464901;255;29025;-79
2023/08/09 09:38:41;;;;;;;3.17;2.97;;;17.00;99.90;;;;;;464886;254;28944;-80
2023/08/09 09:40:42;;;;;;;3.50;3.00;;;17.10;99.90;;;;;;461835;254;36681;-79
2023/08/09 09:42:44;;;;;;;3.67;2.73;;;17.10;99.90;;;;;;464917;254;27560;-79
2023/08/09 09:44:45;;;;;;;2.87;2.70;;;17.10;99.90;;;;;;464919;254;28982;-79
2023/08/09 09:46:46;;;;;;;6.53;3.20;;;17.30;99.90;;;;;;464883;251;28915;-79
2023/08/09 09:48:48;;;;;;;3.07;2.77;;;17.30;99.90;;;;;;464848;254;29423;-79
2023/08/09 09:50:49;;;;;;;3.27;2.80;;;17.40;99.90;;;;;;464891;254;29686;-79
2023/08/09 09:52:50;;;;;;;2.70;2.50;;;17.40;99.90;;;;;;464871;256;29378;-78
2023/08/09 09:54:51;;;;;;;3.37;2.60;;;17.40;99.90;;;;;;464889;254;28935;-78
2023/08/09 09:56:52;;;;;;;3.10;2.90;;;17.60;99.90;;;;;;464834;254;29014;-79
2023/08/09 09:58:54;;;;;;;3.07;2.70;;;17.70;99.90;;;;;;464782;254;29054;-79
2023/08/09 10:00:55;;;;;;;3.30;3.00;;;17.90;99.90;;;;;;464853;254;28975;-79
2023/08/09 10:02:56;;;;;;;3.20;3.00;;;18.00;99.90;;;;;;464822;254;28923;-79
2023/08/09 10:04:57;;;;;;;2.73;2.50;;;18.20;99.90;;;;;;464827;254;28949;-80
2023/08/09 10:06:59;;;;;;;3.50;3.20;;;18.20;99.90;;;;;;464837;254;28941;-79
2023/08/09 10:09:00;;;;;;;3.40;3.10;;;18.10;99.90;;;;;;464818;254;29051;-79
2023/08/09 10:11:01;;;;;;;2.80;2.60;;;18.30;99.90;;;;;;464881;253;28951;-79
2023/08/09 10:13:03;;;;;;;3.17;2.90;;;18.60;99.90;;;;;;464860;254;29505;-78
2023/08/09 10:15:04;;;;;;;3.50;3.10;;;18.80;99.90;;;;;;464850;255;29438;-79
2023/08/09 10:17:05;;;;;;;4.33;3.17;;;18.70;99.90;;;;;;464870;254;29534;-79
2023/08/09 10:19:07;;;;;;;3.10;2.87;;;18.80;99.90;;;;;;464833;254;29023;-79
2023/08/09 10:21:07;;;;;;;4.13;3.30;;;18.90;99.90;;;;;;464887;254;28993;-79
2023/08/09 10:23:09;;;;;;;3.47;3.17;;;19.00;99.90;;;;;;464871;254;28897;-79
2023/08/09 10:25:10;;;;;;;3.83;3.53;;;19.20;99.90;;;;;;464863;254;29019;-79
2023/08/09 10:27:12;;;;;;;4.60;4.20;;;19.30;99.90;;;;;;464839;254;28889;-79
2023/08/09 10:29:12;;;;;;;4.10;3.80;;;19.50;99.90;;;;;;464847;254;28988;-78
2023/08/09 10:31:14;;;;;;;4.23;3.57;;;19.80;99.90;;;;;;464879;254;28991;-79